createdAt,value
2018-10-06T00:00:21.707Z,7.20
2018-10-06T00:02:49.894Z,8.68
2018-10-06T00:05:18.030Z,7.95
2018-10-06T00:07:46.175Z,8.80
2018-10-06T00:10:14.314Z,7.40
2018-10-06T00:12:42.478Z,9.75
2018-10-06T00:15:11.026Z,10.28
2018-10-06T00:17:39.294Z,9.60
2018-10-06T00:20:08.432Z,6.97
2018-10-06T00:22:36.557Z,10.15
2018-10-06T00:25:04.728Z,10.43
2018-10-06T00:27:32.836Z,7.40
2018-10-06T00:30:00.981Z,7.62
2018-10-06T00:32:29.127Z,9.10
2018-10-06T00:34:57.420Z,7.08
2018-10-06T00:37:25.698Z,7.75
2018-10-06T00:39:53.865Z,8.20
2018-10-06T00:42:21.986Z,8.13
2018-10-06T00:44:50.151Z,9.33
2018-10-06T00:47:18.390Z,9.93
2018-10-06T00:49:46.460Z,7.67
2018-10-06T00:52:14.608Z,11.10
2018-10-06T00:54:42.728Z,7.72
2018-10-06T00:57:10.859Z,9.63
2018-10-06T00:59:39.016Z,6.78
2018-10-06T01:02:07.166Z,10.55
2018-10-06T01:04:35.296Z,8.80
2018-10-06T01:07:03.432Z,9.83
2018-10-06T01:09:31.532Z,9.00
2018-10-06T01:11:59.656Z,7.17
2018-10-06T01:14:27.794Z,8.30
2018-10-06T01:16:55.908Z,9.03
2018-10-06T01:19:24.032Z,9.55
2018-10-06T01:21:52.184Z,8.15
2018-10-06T01:24:20.337Z,7.25
2018-10-06T01:26:48.502Z,9.03
2018-10-06T01:29:16.627Z,8.65
2018-10-06T01:31:44.753Z,7.00
2018-10-06T01:34:12.881Z,6.65
2018-10-06T01:36:41.024Z,7.17
2018-10-06T01:39:09.173Z,10.68
2018-10-06T01:41:37.309Z,7.95
2018-10-06T01:44:05.444Z,8.63
2018-10-06T01:46:33.564Z,13.30
2018-10-06T01:49:01.714Z,10.93
2018-10-06T01:51:29.824Z,8.70
2018-10-06T01:53:58.056Z,6.58
2018-10-06T01:56:26.169Z,8.45
2018-10-06T01:58:54.284Z,8.93
2018-10-06T02:01:22.381Z,8.48
2018-10-06T02:03:50.476Z,7.65
2018-10-06T02:06:18.636Z,7.35
2018-10-06T02:08:46.779Z,8.23
2018-10-06T02:11:14.893Z,8.38
2018-10-06T02:13:43.011Z,8.23
2018-10-06T02:16:11.151Z,13.80
2018-10-06T02:18:39.312Z,7.67
2018-10-06T02:21:07.448Z,8.18
2018-10-06T02:23:35.590Z,9.35
2018-10-06T02:26:03.711Z,9.50
2018-10-06T02:28:31.864Z,12.78
2018-10-06T02:30:59.998Z,10.00
2018-10-06T02:33:28.112Z,8.33
2018-10-06T02:35:56.239Z,7.00
2018-10-06T02:38:24.393Z,6.50
2018-10-06T02:40:52.537Z,7.08
2018-10-06T02:43:20.726Z,8.00
2018-10-06T02:45:49.422Z,11.40
2018-10-06T02:48:17.564Z,9.28
2018-10-06T02:50:45.731Z,7.50
2018-10-06T02:53:13.923Z,6.83
2018-10-06T02:55:42.103Z,11.20
2018-10-06T02:58:10.205Z,8.98
2018-10-06T03:00:38.592Z,10.75
2018-10-06T03:03:06.747Z,6.50
2018-10-06T03:05:34.896Z,8.95
2018-10-06T03:08:03.035Z,8.43
2018-10-06T03:10:31.159Z,7.75
2018-10-06T03:12:59.279Z,10.95
2018-10-06T03:15:27.404Z,10.25
2018-10-06T03:17:55.545Z,8.83
2018-10-06T03:20:23.681Z,9.43
2018-10-06T03:22:51.934Z,7.92
2018-10-06T03:25:20.076Z,9.48
2018-10-06T03:27:48.202Z,8.63
2018-10-06T03:30:16.354Z,9.48
2018-10-06T03:32:44.538Z,8.33
2018-10-06T03:35:12.678Z,9.08
2018-10-06T03:37:40.922Z,9.40
2018-10-06T03:40:09.061Z,8.68
2018-10-06T03:42:40.614Z,7.17
2018-10-06T03:45:08.975Z,7.90
2018-10-06T03:47:37.488Z,7.92
2018-10-06T03:50:05.866Z,9.30
2018-10-06T03:52:38.498Z,8.78
2018-10-06T03:55:09.891Z,9.28
2018-10-06T03:57:38.305Z,9.43
2018-10-06T04:00:06.458Z,8.35
2018-10-06T04:02:34.741Z,7.55
2018-10-06T04:05:02.953Z,8.00
2018-10-06T04:07:31.068Z,8.13
2018-10-06T04:09:59.396Z,7.17
2018-10-06T04:12:27.532Z,12.70
2018-10-06T04:14:55.722Z,10.95
2018-10-06T04:17:23.869Z,8.10
2018-10-06T04:19:52.036Z,7.90
2018-10-06T04:22:20.326Z,7.10
2018-10-06T04:24:48.457Z,7.72
2018-10-06T04:27:16.588Z,7.40
2018-10-06T04:29:44.759Z,11.05
2018-10-06T04:32:12.915Z,8.65
2018-10-06T04:34:41.045Z,9.98
2018-10-06T04:37:09.206Z,8.03
2018-10-06T04:39:37.332Z,8.05
2018-10-06T04:42:05.492Z,7.50
2018-10-06T04:44:33.686Z,7.30
2018-10-06T04:47:01.942Z,10.08
2018-10-06T04:49:30.084Z,8.23
2018-10-06T04:51:58.231Z,9.35
2018-10-06T04:54:26.356Z,10.78
2018-10-06T04:56:54.581Z,7.45
2018-10-06T04:59:22.687Z,9.98
2018-10-06T05:01:50.844Z,10.53
2018-10-06T05:04:19.088Z,11.30
2018-10-06T05:06:47.340Z,9.43
2018-10-06T05:09:15.532Z,9.10
2018-10-06T05:11:43.641Z,10.32
2018-10-06T05:14:11.798Z,8.03
2018-10-06T05:16:39.947Z,8.73
2018-10-06T05:19:08.102Z,11.25
2018-10-06T05:21:36.290Z,11.85
2018-10-06T05:24:04.556Z,8.20
2018-10-06T05:26:32.741Z,8.75
2018-10-06T05:29:00.956Z,14.78
2018-10-06T05:31:29.071Z,10.90
2018-10-06T05:33:57.268Z,13.43
2018-10-06T05:36:25.392Z,9.35
2018-10-06T05:38:53.533Z,9.03
2018-10-06T05:41:21.673Z,8.63
2018-10-06T05:43:56.533Z,12.53
2018-10-06T05:46:24.725Z,8.75
2018-10-06T05:48:52.887Z,7.85
2018-10-06T05:51:21.004Z,12.15
2018-10-06T05:53:49.410Z,9.25
2018-10-06T05:56:17.569Z,9.90
2018-10-06T05:58:45.684Z,10.32
2018-10-06T06:01:13.845Z,9.18
2018-10-06T06:03:42.021Z,10.40
2018-10-06T06:06:10.184Z,9.18
2018-10-06T06:08:38.302Z,9.90
2018-10-06T06:11:06.444Z,10.23
2018-10-06T06:13:34.584Z,8.30
2018-10-06T06:16:02.756Z,8.45
2018-10-06T06:18:30.885Z,8.60
2018-10-06T06:20:59.017Z,8.60
2018-10-06T06:23:27.225Z,12.63
2018-10-06T06:25:55.410Z,10.08
2018-10-06T06:28:23.581Z,8.33
2018-10-06T06:30:51.756Z,10.55
2018-10-06T06:33:19.900Z,9.65
2018-10-06T06:35:49.109Z,9.35
2018-10-06T06:38:17.335Z,9.43
2018-10-06T06:40:45.472Z,8.25
2018-10-06T06:43:13.764Z,7.62
2018-10-06T06:45:41.966Z,10.08
2018-10-06T06:48:10.123Z,7.67
2018-10-06T06:50:38.249Z,8.20
2018-10-06T06:53:06.396Z,11.75
2018-10-06T06:55:34.508Z,8.98
2018-10-06T06:58:02.709Z,8.45
2018-10-06T07:00:30.882Z,10.13
2018-10-06T07:02:59.052Z,9.40
2018-10-06T07:05:27.196Z,8.48
2018-10-06T07:07:56.027Z,9.05
2018-10-06T07:10:24.863Z,12.30
2018-10-06T07:12:53.143Z,8.85
2018-10-06T07:15:21.353Z,10.05
2018-10-06T07:17:49.507Z,8.45
2018-10-06T07:20:17.666Z,8.78
2018-10-06T07:22:45.955Z,8.78
2018-10-06T07:25:14.092Z,8.30
2018-10-06T07:27:42.441Z,9.33
2018-10-06T07:30:11.632Z,11.28
2018-10-06T07:32:39.804Z,9.20
2018-10-06T07:35:07.945Z,9.38
2018-10-06T07:37:36.106Z,9.43
2018-10-06T07:40:04.268Z,9.75
2018-10-06T07:42:32.876Z,11.18
2018-10-06T07:45:01.163Z,10.10
2018-10-06T07:47:29.442Z,9.75
2018-10-06T07:49:57.728Z,7.70
2018-10-06T07:52:25.965Z,8.48
2018-10-06T07:54:54.242Z,9.03
2018-10-06T07:57:22.423Z,11.97
2018-10-06T07:59:50.737Z,8.50
2018-10-06T08:02:18.994Z,7.17
2018-10-06T08:04:47.204Z,7.85
2018-10-06T08:07:15.354Z,7.00
2018-10-06T08:09:43.535Z,9.10
2018-10-06T08:12:11.710Z,9.13
2018-10-06T08:14:39.856Z,9.20
2018-10-06T08:17:08.030Z,8.58
2018-10-06T08:19:36.152Z,8.07
2018-10-06T08:22:04.447Z,9.10
2018-10-06T08:24:32.560Z,8.67
2018-10-06T08:27:00.795Z,8.33
2018-10-06T08:29:28.941Z,10.20
2018-10-06T08:31:57.169Z,8.37
2018-10-06T08:34:25.324Z,7.97
2018-10-06T08:36:53.477Z,7.03
2018-10-06T08:39:21.653Z,9.60
2018-10-06T08:41:49.841Z,7.53
2018-10-06T08:44:18.220Z,6.77
2018-10-06T08:46:46.361Z,8.20
2018-10-06T08:49:14.498Z,6.70
2018-10-06T08:51:42.624Z,6.37
2018-10-06T08:54:10.760Z,7.23
2018-10-06T08:56:38.941Z,6.33
2018-10-06T08:59:07.015Z,8.40
2018-10-06T09:01:35.141Z,7.17
2018-10-06T09:04:03.262Z,7.90
2018-10-06T09:06:31.380Z,9.80
2018-10-06T09:08:59.540Z,9.20
2018-10-06T09:11:27.660Z,7.40
2018-10-06T09:13:55.797Z,6.40
2018-10-06T09:16:23.905Z,6.60
2018-10-06T09:18:51.988Z,7.63
2018-10-06T09:21:23.066Z,6.47
2018-10-06T09:23:51.266Z,7.60
2018-10-06T09:26:19.423Z,9.27
2018-10-06T09:28:47.817Z,6.73
2018-10-06T09:31:15.943Z,9.20
2018-10-06T09:33:44.044Z,6.87
2018-10-06T09:36:12.196Z,7.50
2018-10-06T09:38:40.360Z,6.50
2018-10-06T09:41:08.583Z,6.37
2018-10-06T09:43:38.216Z,5.90
2018-10-06T09:46:06.855Z,6.40
2018-10-06T09:48:34.984Z,8.37
2018-10-06T09:51:03.095Z,6.50
2018-10-06T09:53:31.496Z,8.43
2018-10-06T09:55:59.621Z,6.40
2018-10-06T09:58:29.314Z,7.27
2018-10-06T10:01:02.686Z,6.53
2018-10-06T10:03:36.260Z,6.97
2018-10-06T10:06:04.374Z,7.90
2018-10-06T10:08:32.616Z,7.87
2018-10-06T10:11:00.733Z,6.70
2018-10-06T10:13:28.861Z,6.83
2018-10-06T10:15:57.021Z,7.13
2018-10-06T10:18:25.355Z,7.00
2018-10-06T10:20:53.244Z,6.83
2018-10-06T10:23:21.439Z,8.43
2018-10-06T10:25:49.521Z,7.13
2018-10-06T10:28:17.663Z,9.73
2018-10-06T10:30:45.799Z,6.20
2018-10-06T10:33:13.900Z,6.90
2018-10-06T10:35:42.037Z,7.80
2018-10-06T10:38:10.278Z,7.13
2018-10-06T10:40:38.380Z,6.40
2018-10-06T10:43:06.523Z,6.43
2018-10-06T10:45:34.635Z,7.07
2018-10-06T10:48:02.802Z,9.47
2018-10-06T10:50:30.957Z,6.80
2018-10-06T10:52:59.064Z,9.07
2018-10-06T10:55:27.218Z,11.27
2018-10-06T10:57:55.347Z,6.93
2018-10-06T11:00:23.520Z,7.53
2018-10-06T11:02:51.603Z,9.13
2018-10-06T11:05:19.729Z,7.53
2018-10-06T11:07:47.853Z,6.60
2018-10-06T11:10:16.013Z,8.37
2018-10-06T11:12:44.452Z,9.00
2018-10-06T11:15:12.605Z,6.50
2018-10-06T11:17:41.246Z,7.30
2018-10-06T11:20:09.494Z,7.07
2018-10-06T11:22:37.697Z,8.63
2018-10-06T11:25:05.909Z,7.00
2018-10-06T11:27:34.096Z,6.73
2018-10-06T11:30:02.219Z,7.00
2018-10-06T11:32:30.389Z,6.67
2018-10-06T11:34:58.553Z,6.53
2018-10-06T11:37:26.914Z,7.03
2018-10-06T11:39:55.099Z,10.60
2018-10-06T11:42:23.388Z,7.07
2018-10-06T11:44:51.638Z,6.67
2018-10-06T11:47:19.754Z,7.40
2018-10-06T11:49:47.892Z,7.90
2018-10-06T11:52:16.047Z,7.53
2018-10-06T11:54:44.189Z,6.77
2018-10-06T11:57:12.357Z,8.53
2018-10-06T11:59:40.542Z,7.67
2018-10-06T12:02:08.658Z,13.83
2018-10-06T12:04:36.881Z,7.13
2018-10-06T12:07:05.023Z,7.97
2018-10-06T12:09:33.134Z,6.83
2018-10-06T12:12:01.306Z,7.60
2018-10-06T12:14:29.600Z,7.20
2018-10-06T12:16:57.977Z,7.63
2018-10-06T12:19:26.217Z,8.10
2018-10-06T12:21:54.410Z,7.43
2018-10-06T12:24:22.630Z,7.63
2018-10-06T12:26:50.778Z,6.50
2018-10-06T12:29:19.092Z,6.77
2018-10-06T12:31:47.175Z,6.97
2018-10-06T12:34:15.289Z,7.50
2018-10-06T12:36:43.413Z,7.37
2018-10-06T12:39:11.537Z,7.40
2018-10-06T12:41:39.727Z,8.03
2018-10-06T12:44:07.940Z,7.30
2018-10-06T12:46:36.072Z,6.83
2018-10-06T12:49:04.198Z,10.00
2018-10-06T12:51:32.479Z,6.90
2018-10-06T12:54:00.526Z,6.70
2018-10-06T12:56:28.666Z,8.57
2018-10-06T12:58:56.885Z,6.97
2018-10-06T13:01:25.014Z,7.23
2018-10-06T13:03:53.108Z,6.73
2018-10-06T13:06:21.303Z,6.70
2018-10-06T13:08:49.454Z,9.40
2018-10-06T13:11:17.571Z,6.53
2018-10-06T13:13:45.709Z,6.40
2018-10-06T13:16:13.838Z,5.80
2018-10-06T13:18:42.002Z,7.97
2018-10-06T13:21:10.103Z,7.03
2018-10-06T13:23:39.094Z,6.80
2018-10-06T13:26:07.317Z,8.00
2018-10-06T13:28:35.449Z,6.00
2018-10-06T13:31:03.774Z,6.90
2018-10-06T13:33:31.922Z,8.00
2018-10-06T13:36:00.042Z,7.30
2018-10-06T13:38:28.223Z,7.30
2018-10-06T13:40:56.388Z,6.90
2018-10-06T13:43:24.542Z,6.87
2018-10-06T13:45:53.508Z,6.43
2018-10-06T13:48:21.649Z,6.90
2018-10-06T13:50:52.961Z,7.10
2018-10-06T13:53:21.195Z,7.43
2018-10-06T13:55:49.341Z,7.47
2018-10-06T13:58:17.698Z,7.57
2018-10-06T14:00:45.860Z,7.33
2018-10-06T14:03:14.019Z,6.93
2018-10-06T14:05:42.149Z,7.10
2018-10-06T14:08:10.325Z,6.97
2018-10-06T14:10:40.580Z,6.70
2018-10-06T14:13:08.789Z,6.40
2018-10-06T14:15:36.984Z,8.23
2018-10-06T14:18:05.609Z,7.67
2018-10-06T14:20:35.973Z,7.70
2018-10-06T14:23:04.457Z,12.03
2018-10-06T14:25:32.618Z,6.70
2018-10-06T14:28:00.771Z,8.00
2018-10-06T14:30:28.944Z,7.23
2018-10-06T14:32:57.342Z,9.33
2018-10-06T14:35:25.590Z,7.50
2018-10-06T14:37:53.773Z,7.50
2018-10-06T14:40:22.027Z,7.27
2018-10-06T14:42:50.180Z,7.80
2018-10-06T14:45:18.321Z,8.00
2018-10-06T14:47:46.527Z,8.57
2018-10-06T14:50:14.886Z,11.70
2018-10-06T14:52:43.062Z,8.57
2018-10-06T14:55:11.253Z,11.60
2018-10-06T14:57:39.724Z,8.73
2018-10-06T15:00:08.069Z,8.33
2018-10-06T15:02:36.356Z,7.90
2018-10-06T15:05:04.761Z,8.13
2018-10-06T15:07:37.430Z,12.13
2018-10-06T15:10:06.408Z,8.60
2018-10-06T15:12:34.596Z,8.53
2018-10-06T15:15:02.781Z,10.53
2018-10-06T15:17:31.106Z,8.77
2018-10-06T15:19:59.278Z,7.27
2018-10-06T15:22:28.259Z,8.97
2018-10-06T15:24:58.804Z,7.70
2018-10-06T15:27:26.978Z,8.90
2018-10-06T15:29:55.932Z,8.73
2018-10-06T15:32:24.915Z,8.20
2018-10-06T15:34:53.149Z,13.47
2018-10-06T15:37:22.460Z,7.50
2018-10-06T15:39:51.704Z,9.00
2018-10-06T15:42:19.869Z,10.33
2018-10-06T15:44:48.358Z,8.60
2018-10-06T15:47:17.577Z,7.77
2018-10-06T15:49:46.437Z,8.90
2018-10-06T15:52:17.271Z,9.47
2018-10-06T15:54:45.923Z,11.43
2018-10-06T15:57:16.169Z,8.73
2018-10-06T15:59:44.316Z,9.50
2018-10-06T16:02:12.490Z,8.73
2018-10-06T16:04:40.620Z,10.20
2018-10-06T16:07:08.833Z,9.07
2018-10-06T16:09:37.048Z,11.13
2018-10-06T16:12:05.426Z,13.60
2018-10-06T16:14:33.539Z,11.30
2018-10-06T16:17:01.681Z,10.40
2018-10-06T16:19:29.853Z,11.23
2018-10-06T16:21:57.963Z,10.87
2018-10-06T16:24:26.104Z,9.60
2018-10-06T16:26:54.597Z,9.53
2018-10-06T16:29:22.723Z,11.23
2018-10-06T16:31:50.918Z,12.37
2018-10-06T16:34:19.086Z,10.73
2018-10-06T16:36:47.263Z,12.67
2018-10-06T16:39:15.521Z,12.70
2018-10-06T16:41:43.657Z,10.20
2018-10-06T16:44:11.908Z,10.43
2018-10-06T16:46:40.235Z,12.17
2018-10-06T16:49:08.439Z,10.20
2018-10-06T16:51:36.591Z,12.17
2018-10-06T16:54:05.020Z,11.07
2018-10-06T16:56:33.139Z,12.13
2018-10-06T16:59:01.303Z,11.53
2018-10-06T17:01:29.477Z,10.10
2018-10-06T17:03:57.683Z,13.80
2018-10-06T17:06:25.835Z,11.47
2018-10-06T17:08:53.977Z,12.23
2018-10-06T17:11:22.096Z,14.10
2018-10-06T17:13:50.290Z,12.43
2018-10-06T17:16:18.473Z,10.27
2018-10-06T17:18:46.718Z,13.07
2018-10-06T17:21:14.860Z,11.97
2018-10-06T17:23:42.988Z,12.27
2018-10-06T17:26:11.148Z,13.33
2018-10-06T17:28:39.361Z,12.97
2018-10-06T17:31:07.584Z,10.80
2018-10-06T17:33:36.008Z,13.47
2018-10-06T17:36:04.099Z,12.93
2018-10-06T17:38:32.339Z,12.70
2018-10-06T17:41:00.733Z,13.10
2018-10-06T17:43:30.499Z,13.00
2018-10-06T17:45:58.904Z,14.83
2018-10-06T17:48:27.162Z,14.23
2018-10-06T17:50:55.999Z,17.00
2018-10-06T17:53:24.263Z,14.90
2018-10-06T17:55:53.055Z,13.10
2018-10-06T17:58:21.317Z,13.40
2018-10-06T18:00:49.506Z,14.87
2018-10-06T18:03:19.974Z,14.60
2018-10-06T18:05:48.159Z,14.87
2018-10-06T18:08:16.523Z,13.07
2018-10-06T18:10:44.685Z,12.47
2018-10-06T18:13:12.918Z,12.23
2018-10-06T18:15:41.521Z,13.40
2018-10-06T18:18:09.811Z,12.77
2018-10-06T18:20:38.266Z,12.00
2018-10-06T18:23:06.235Z,12.13
2018-10-06T18:25:34.425Z,14.50
2018-10-06T18:28:02.602Z,13.50
2018-10-06T18:30:30.900Z,12.30
2018-10-06T18:32:59.256Z,13.72
2018-10-06T18:35:27.409Z,14.60
2018-10-06T18:37:55.634Z,14.53
2018-10-06T18:40:23.972Z,13.03
2018-10-06T18:42:52.587Z,12.40
2018-10-06T18:45:20.872Z,12.20
2018-10-06T18:47:49.417Z,12.80
2018-10-06T18:50:17.537Z,12.03
2018-10-06T18:52:45.786Z,14.10
2018-10-06T18:55:14.140Z,12.05
2018-10-06T18:57:42.376Z,11.68
2018-10-06T19:00:10.535Z,11.93
2018-10-06T19:02:38.699Z,11.30
2018-10-06T19:05:06.958Z,11.23
2018-10-06T19:07:35.088Z,10.40
2018-10-06T19:10:03.316Z,11.50
2018-10-06T19:12:31.398Z,11.73
2018-10-06T19:14:59.544Z,10.78
2018-10-06T19:17:33.868Z,11.00
2018-10-06T19:20:06.633Z,12.00
2018-10-06T19:22:37.841Z,10.70
2018-10-06T19:25:12.438Z,11.23
2018-10-06T19:27:40.640Z,12.30
2018-10-06T19:30:15.794Z,10.37
2018-10-06T19:32:44.945Z,11.40
2018-10-06T19:35:13.097Z,12.00
2018-10-06T19:37:41.205Z,10.83
2018-10-06T19:40:10.124Z,11.77
2018-10-06T19:42:41.260Z,11.60
2018-10-06T19:45:09.584Z,10.63
2018-10-06T19:47:37.753Z,10.60
2018-10-06T19:50:10.019Z,10.77
2018-10-06T19:52:39.117Z,10.60
2018-10-06T19:55:10.139Z,11.63
2018-10-06T19:57:38.451Z,10.70
2018-10-06T20:00:13.601Z,10.53
2018-10-06T20:02:41.766Z,10.83
2018-10-06T20:05:17.809Z,10.40
2018-10-06T20:07:45.916Z,12.00
2018-10-06T20:10:14.155Z,13.07
2018-10-06T20:12:43.051Z,11.63
2018-10-06T20:15:11.180Z,10.57
2018-10-06T20:17:48.635Z,11.33
2018-10-06T20:20:16.876Z,10.80
2018-10-06T20:22:45.217Z,10.10
2018-10-06T20:25:18.014Z,9.00
2018-10-06T20:27:46.156Z,10.57
2018-10-06T20:30:17.749Z,11.00
2018-10-06T20:32:46.288Z,10.00
2018-10-06T20:35:14.463Z,9.80
2018-10-06T20:37:42.614Z,9.50
2018-10-06T20:40:10.846Z,10.33
2018-10-06T20:42:38.914Z,10.07
2018-10-06T20:45:13.671Z,10.83
2018-10-06T20:47:48.158Z,9.80
2018-10-06T20:50:16.280Z,9.70
2018-10-06T20:52:44.455Z,10.10
2018-10-06T20:55:16.560Z,10.23
2018-10-06T20:57:49.010Z,8.97
2018-10-06T21:00:20.549Z,10.10
2018-10-06T21:02:48.776Z,10.40
2018-10-06T21:05:17.398Z,10.23
2018-10-06T21:07:51.754Z,10.27
2018-10-06T21:10:20.249Z,10.30
2018-10-06T21:12:48.453Z,10.70
2018-10-06T21:15:16.585Z,10.23
2018-10-06T21:17:45.612Z,10.93
2018-10-06T21:20:19.228Z,10.30
2018-10-06T21:22:47.417Z,9.90
2018-10-06T21:25:21.542Z,11.53
2018-10-06T21:27:49.711Z,10.97
2018-10-06T21:30:18.256Z,10.80
2018-10-06T21:32:46.382Z,10.30
2018-10-06T21:35:14.504Z,11.23
2018-10-06T21:37:42.643Z,10.13
2018-10-06T21:40:10.834Z,9.10
2018-10-06T21:42:38.954Z,9.90
2018-10-06T21:45:07.191Z,9.63
2018-10-06T21:47:35.312Z,10.30
2018-10-06T21:50:03.530Z,10.13
2018-10-06T21:52:31.750Z,10.80
2018-10-06T21:54:59.941Z,12.83
2018-10-06T21:57:28.119Z,10.63
2018-10-06T21:59:56.277Z,9.67
2018-10-06T22:02:24.504Z,9.37
2018-10-06T22:04:52.662Z,10.00
2018-10-06T22:07:20.888Z,11.23
2018-10-06T22:09:49.055Z,9.40
2018-10-06T22:12:17.282Z,10.27
2018-10-06T22:14:45.435Z,10.40
2018-10-06T22:17:13.599Z,10.65
2018-10-06T22:19:41.751Z,10.47
2018-10-06T22:22:09.893Z,10.00
2018-10-06T22:24:38.048Z,10.60
2018-10-06T22:27:06.186Z,10.57
2018-10-06T22:29:34.333Z,10.35
2018-10-06T22:32:02.517Z,11.00
2018-10-06T22:34:30.665Z,10.45
2018-10-06T22:36:58.798Z,12.27
2018-10-06T22:39:26.916Z,9.80
2018-10-06T22:41:55.082Z,11.07
2018-10-06T22:44:23.232Z,10.40
2018-10-06T22:46:51.391Z,10.83
2018-10-06T22:49:19.541Z,11.27
2018-10-06T22:51:47.720Z,11.43
2018-10-06T22:54:15.887Z,9.50
2018-10-06T22:56:44.057Z,9.83
2018-10-06T22:59:12.178Z,9.83
2018-10-06T23:01:40.308Z,10.35
2018-10-06T23:04:08.432Z,10.38
2018-10-06T23:06:36.629Z,11.05
2018-10-06T23:09:07.517Z,11.43
2018-10-06T23:11:35.694Z,11.22
2018-10-06T23:14:03.860Z,11.12
2018-10-06T23:16:32.053Z,10.50
2018-10-06T23:19:00.183Z,11.05
2018-10-06T23:21:28.389Z,10.70
2018-10-06T23:23:56.598Z,11.08
2018-10-06T23:26:24.811Z,11.55
2018-10-06T23:28:53.011Z,11.08
2018-10-06T23:31:21.221Z,11.35
2018-10-06T23:33:49.469Z,10.48
2018-10-06T23:36:17.681Z,10.43
2018-10-06T23:38:45.850Z,11.03
2018-10-06T23:41:14.085Z,10.95
2018-10-06T23:43:42.226Z,10.88
2018-10-06T23:46:10.860Z,11.10
2018-10-06T23:48:39.055Z,11.68
2018-10-06T23:51:07.316Z,12.23
2018-10-06T23:53:35.500Z,10.72
2018-10-06T23:56:03.650Z,12.07
2018-10-06T23:58:31.796Z,11.50
